createdAt,value
2023-03-14T04:52:48.472Z,1.1
2023-03-14T04:53:56.818Z,1.1
2023-03-14T04:55:05.200Z,1.1
2023-03-14T04:56:13.705Z,1
2023-03-14T04:57:22.038Z,1
2023-03-14T04:58:30.423Z,1
2023-03-14T04:59:38.948Z,1
2023-03-14T05:00:47.292Z,1
2023-03-14T05:01:55.736Z,1
2023-03-14T05:03:04.271Z,0.8
2023-03-14T05:04:12.506Z,0.8
2023-03-14T05:05:20.850Z,0.8
2023-03-14T05:06:29.382Z,0.7
2023-03-14T05:07:37.737Z,0.7
2023-03-14T05:08:46.127Z,0.7
2023-03-14T05:09:54.677Z,0.9
2023-03-14T05:11:03.001Z,0.9
2023-03-14T05:12:11.360Z,0.9
2023-03-14T05:13:19.918Z,1
2023-03-14T05:14:28.249Z,1
2023-03-14T05:15:36.609Z,1
2023-03-14T05:16:45.141Z,0.9
2023-03-14T05:17:53.487Z,0.9
2023-03-14T05:19:01.822Z,0.9
2023-03-14T05:20:10.382Z,1
2023-03-14T05:21:18.726Z,1
2023-03-14T05:22:27.079Z,1
2023-03-14T05:23:35.638Z,0.9
2023-03-14T05:24:44.127Z,0.9
2023-03-14T05:25:52.332Z,0.9
2023-03-14T05:27:00.878Z,1
2023-03-14T05:28:09.235Z,1
2023-03-14T05:29:17.584Z,1
2023-03-14T05:30:26.137Z,0.9
2023-03-14T05:31:34.561Z,0.9
2023-03-14T05:32:42.858Z,0.9
2023-03-14T05:33:51.376Z,1.2
2023-03-14T05:34:59.727Z,1.2
2023-03-14T05:36:08.147Z,1.2
2023-03-14T05:37:18.349Z,0.9
2023-03-14T05:38:25.001Z,0.9
2023-03-14T05:39:33.343Z,0.9
2023-03-14T05:40:41.919Z,1.1
2023-03-14T05:41:50.247Z,1.1
2023-03-14T05:42:58.581Z,1.1
2023-03-14T05:44:07.165Z,0.8
2023-03-14T05:45:15.491Z,0.8
2023-03-14T05:46:23.932Z,0.8
2023-03-14T05:47:32.388Z,0.8
2023-03-14T05:48:40.738Z,0.8
2023-03-14T05:49:49.080Z,0.8
2023-03-14T05:50:57.655Z,0.9
2023-03-14T05:52:06.010Z,0.9
2023-03-14T05:53:14.322Z,0.9
2023-03-14T05:54:22.884Z,0.8
2023-03-14T05:55:31.218Z,0.8
2023-03-14T05:56:39.585Z,0.8
2023-03-14T05:57:48.121Z,0.7
2023-03-14T05:58:56.470Z,0.7
2023-03-14T06:00:04.825Z,0.7
2023-03-14T06:01:13.400Z,0.9
2023-03-14T06:02:21.822Z,0.9
2023-03-14T06:03:30.135Z,0.9
2023-03-14T06:04:38.663Z,1.1
2023-03-14T06:05:47.002Z,1.1
2023-03-14T06:06:55.354Z,1.1
2023-03-14T06:08:03.915Z,9.4
2023-03-14T06:09:12.260Z,9.4
2023-03-14T06:10:20.595Z,9.4
2023-03-14T06:11:29.161Z,12.5
2023-03-14T06:12:37.584Z,12.5
2023-03-14T06:13:45.868Z,12.5
2023-03-14T06:14:54.417Z,4.1
2023-03-14T06:16:02.761Z,4.1
2023-03-14T06:17:11.104Z,4.1
2023-03-14T06:18:19.657Z,10.4
2023-03-14T06:19:27.993Z,10.4
2023-03-14T06:20:36.346Z,10.4
2023-03-14T06:21:44.896Z,33.099998
2023-03-14T06:22:53.249Z,33.099998
2023-03-14T06:24:01.595Z,33.099998
2023-03-14T06:25:10.164Z,13
2023-03-14T06:26:18.516Z,13
2023-03-14T06:27:26.849Z,13
2023-03-14T06:28:35.631Z,9.6
2023-03-14T06:29:43.760Z,9.6
2023-03-14T06:30:52.144Z,9.6
2023-03-14T06:32:00.669Z,6.2
2023-03-14T06:33:09.024Z,6.2
2023-03-14T06:34:17.360Z,6.2
2023-03-14T06:35:25.902Z,7.2
2023-03-14T06:36:34.271Z,7.2
2023-03-14T06:37:42.599Z,7.2
2023-03-14T06:38:51.157Z,5.9
2023-03-14T06:39:59.521Z,5.9
2023-03-14T06:41:07.882Z,5.9
2023-03-14T06:42:16.433Z,5.8
2023-03-14T06:43:24.787Z,5.8
2023-03-14T06:44:33.229Z,5.8
2023-03-14T06:45:41.693Z,6.2
2023-03-14T06:46:50.031Z,6.2
2023-03-14T06:47:58.388Z,6.2
2023-03-14T06:49:06.946Z,7.9
2023-03-14T06:50:15.340Z,7.9
2023-03-14T06:51:23.858Z,7.9
2023-03-14T06:52:32.546Z,3.8
2023-03-14T06:53:41.373Z,3.8
2023-03-14T06:54:49.710Z,3.8
2023-03-14T06:55:58.272Z,8.5
2023-03-14T06:57:06.658Z,8.5
2023-03-14T06:58:14.991Z,8.5
2023-03-14T06:59:23.559Z,5.7
2023-03-14T07:00:31.948Z,5.7
2023-03-14T07:01:40.280Z,5.7
2023-03-14T07:02:48.865Z,33.700001
2023-03-14T07:03:57.219Z,33.700001
2023-03-14T07:05:05.565Z,33.700001
2023-03-14T07:06:14.137Z,2.3
2023-03-14T07:07:22.497Z,2.3
2023-03-14T07:08:30.847Z,2.3
2023-03-14T07:09:39.403Z,5.1
2023-03-14T07:10:47.775Z,5.1
2023-03-14T07:11:56.117Z,5.1
2023-03-14T07:13:04.666Z,1.9
2023-03-14T07:14:13.024Z,1.9
2023-03-14T07:15:21.377Z,1.9
2023-03-14T07:16:29.978Z,8.1
2023-03-14T07:17:38.428Z,8.1
2023-03-14T07:18:46.761Z,8.1
2023-03-14T07:19:55.322Z,3.9
2023-03-14T07:21:03.695Z,3.9
2023-03-14T07:22:12.043Z,3.9
2023-03-14T07:23:20.630Z,27.5
2023-03-14T07:24:28.978Z,27.5
2023-03-14T07:25:37.335Z,27.5
2023-03-14T07:26:45.888Z,5.9
2023-03-14T07:27:54.269Z,5.9
2023-03-14T07:29:02.647Z,5.9
2023-03-14T07:30:11.201Z,5.8
2023-03-14T07:31:19.591Z,5.8
2023-03-14T07:32:27.966Z,5.8
2023-03-14T07:33:36.484Z,14.3
2023-03-14T07:34:44.830Z,14.3
2023-03-14T07:35:53.228Z,14.3
2023-03-14T07:37:01.754Z,1.4
2023-03-14T07:38:10.132Z,1.4
2023-03-14T07:39:18.483Z,1.4
2023-03-14T07:40:27.127Z,2.8
2023-03-14T07:41:35.394Z,2.8
2023-03-14T07:42:43.770Z,2.8
2023-03-14T07:43:52.369Z,5.1
2023-03-14T07:45:00.707Z,5.1
2023-03-14T07:46:09.122Z,5.1
2023-03-14T07:47:17.624Z,12.1
2023-03-14T07:48:26.022Z,12.1
2023-03-14T07:49:34.344Z,12.1
2023-03-14T07:50:42.908Z,1.3
2023-03-14T07:51:51.286Z,1.3
2023-03-14T07:52:59.614Z,1.3
2023-03-14T07:54:08.186Z,3.2
2023-03-14T07:55:16.550Z,3.2
2023-03-14T07:56:24.891Z,3.2
2023-03-14T07:57:33.447Z,2
2023-03-14T07:58:41.813Z,2
2023-03-14T07:59:50.157Z,2
2023-03-14T08:00:58.725Z,1.3
2023-03-14T08:02:07.084Z,1.3
2023-03-14T08:03:15.450Z,1.3
2023-03-14T08:04:24.057Z,1.1
2023-03-14T08:05:32.388Z,1.1
2023-03-14T08:06:40.713Z,1.1
2023-03-14T08:07:49.284Z,2.1
2023-03-14T08:08:57.646Z,2.1
2023-03-14T08:10:06.004Z,2.1
2023-03-14T08:11:14.560Z,1.2
2023-03-14T08:12:22.914Z,1.2
2023-03-14T08:13:31.332Z,1.2
2023-03-14T08:14:39.889Z,0.7
2023-03-14T08:15:48.281Z,0.7
2023-03-14T08:16:56.614Z,0.7
2023-03-14T08:18:05.209Z,1.1
2023-03-14T08:19:13.558Z,1.1
2023-03-14T08:20:21.904Z,1.1
2023-03-14T08:21:30.448Z,4.9
2023-03-14T08:22:38.796Z,4.9
2023-03-14T08:23:47.334Z,4.9
2023-03-14T08:24:55.881Z,1.8
2023-03-14T08:26:04.241Z,1.8
2023-03-14T08:27:12.589Z,1.8
2023-03-14T08:28:21.149Z,2.2
2023-03-14T08:29:29.505Z,2.2
2023-03-14T08:30:37.878Z,2.2
2023-03-14T08:31:46.488Z,2.8
2023-03-14T08:32:54.777Z,2.8
2023-03-14T08:34:03.120Z,2.8
2023-03-14T08:35:11.674Z,0.8
2023-03-14T08:36:22.399Z,0.8
2023-03-14T08:37:28.362Z,0.8
2023-03-14T08:38:36.929Z,0.9
2023-03-14T08:39:45.290Z,0.9
2023-03-14T08:40:53.760Z,0.9
2023-03-14T08:42:02.265Z,0.8
2023-03-14T08:43:10.699Z,0.8
2023-03-14T08:44:20.855Z,0.8
2023-03-14T08:45:27.734Z,0.8
2023-03-14T08:46:36.195Z,0.8
2023-03-14T08:47:44.474Z,0.8
2023-03-14T08:48:53.026Z,0.5
2023-03-14T08:50:01.538Z,0.5
2023-03-14T08:51:09.756Z,0.5
2023-03-14T08:52:18.348Z,0.9
2023-03-14T08:53:26.671Z,0.9
2023-03-14T08:54:35.033Z,0.9
2023-03-14T08:55:43.576Z,0.7
2023-03-14T08:56:51.953Z,0.7
2023-03-14T08:58:00.317Z,0.7
2023-03-14T08:59:09.085Z,0.7
2023-03-14T09:00:17.381Z,0.7
2023-03-14T09:01:25.811Z,0.7
2023-03-14T09:02:34.280Z,0.8
2023-03-14T09:03:42.675Z,0.8
2023-03-14T09:04:50.996Z,0.8
2023-03-14T09:05:59.546Z,0.8
2023-03-14T09:07:07.891Z,0.8
2023-03-14T09:08:16.279Z,0.8
2023-03-14T09:09:24.814Z,0.5
2023-03-14T09:10:33.158Z,0.5
2023-03-14T09:11:41.507Z,0.5
2023-03-14T09:12:50.059Z,0.8
2023-03-14T09:13:58.436Z,0.8
2023-03-14T09:15:06.796Z,0.8
2023-03-14T09:16:15.360Z,0.7
2023-03-14T09:17:23.705Z,0.7
2023-03-14T09:18:32.073Z,0.7
2023-03-14T09:19:40.634Z,0.8
2023-03-14T09:20:48.992Z,0.8
2023-03-14T09:21:57.356Z,0.8
2023-03-14T09:23:05.898Z,0.5
2023-03-14T09:24:14.273Z,0.5
2023-03-14T09:25:22.604Z,0.5
2023-03-14T09:26:31.162Z,2.4
2023-03-14T09:27:39.522Z,2.4
2023-03-14T09:28:47.891Z,2.4
2023-03-14T09:29:56.455Z,36.5
2023-03-14T09:31:04.809Z,36.5
2023-03-14T09:32:13.167Z,36.5
2023-03-14T09:33:21.743Z,6.5
2023-03-14T09:34:30.095Z,6.5
2023-03-14T09:35:38.485Z,6.5
2023-03-14T09:36:47.013Z,22.200001
2023-03-14T09:37:55.355Z,22.200001
2023-03-14T09:39:03.719Z,22.200001
2023-03-14T09:40:12.288Z,3.4
2023-03-14T09:41:20.634Z,3.4
2023-03-14T09:42:28.989Z,3.4
2023-03-14T09:43:37.554Z,6.3
2023-03-14T09:44:45.910Z,6.3
2023-03-14T09:45:54.316Z,6.3
2023-03-14T09:47:02.818Z,1.4
2023-03-14T09:48:11.192Z,1.4
2023-03-14T09:49:19.550Z,1.4
2023-03-14T09:50:28.111Z,2.1
2023-03-14T09:51:36.463Z,2.1
2023-03-14T09:52:44.828Z,2.1
2023-03-14T09:53:53.404Z,3.1
2023-03-14T09:55:01.766Z,3.1
2023-03-14T09:56:10.150Z,3.1
2023-03-14T09:57:18.681Z,10
2023-03-14T09:58:27.062Z,10
2023-03-14T09:59:35.401Z,10
2023-03-14T10:00:43.953Z,2.4
2023-03-14T10:01:52.368Z,2.4
2023-03-14T10:03:00.654Z,2.4
2023-03-14T10:04:09.252Z,3
2023-03-14T10:05:17.572Z,3
2023-03-14T10:06:25.927Z,3
2023-03-14T10:07:34.485Z,3.5
2023-03-14T10:08:42.840Z,3.5
2023-03-14T10:09:51.222Z,3.5
2023-03-14T10:10:59.749Z,6.1
2023-03-14T10:12:09.345Z,6.1
2023-03-14T10:13:16.451Z,6.1
2023-03-14T10:14:24.998Z,1.9
2023-03-14T10:15:33.346Z,1.9
2023-03-14T10:16:41.750Z,1.9
2023-03-14T10:17:50.266Z,0.6
2023-03-14T10:18:58.615Z,0.6
2023-03-14T10:20:06.979Z,0.6
2023-03-14T10:21:15.516Z,0.8
2023-03-14T10:22:23.878Z,0.8
2023-03-14T10:23:32.235Z,0.8
2023-03-14T10:24:40.782Z,0.6
2023-03-14T10:25:49.142Z,0.6
2023-03-14T10:26:57.503Z,0.6
2023-03-14T10:28:06.099Z,0.7
2023-03-14T10:29:14.425Z,0.7
2023-03-14T10:30:22.762Z,0.7
2023-03-14T10:31:31.308Z,1.7
2023-03-14T10:32:39.700Z,1.7
2023-03-14T10:33:48.014Z,1.7
2023-03-14T10:34:56.561Z,0.8
2023-03-14T10:36:04.977Z,0.8
2023-03-14T10:37:13.289Z,0.8
2023-03-14T10:38:21.845Z,0.5
2023-03-14T10:39:30.194Z,0.5
2023-03-14T10:40:38.553Z,0.5
2023-03-14T10:41:47.109Z,0.6
2023-03-14T10:42:55.465Z,0.6
2023-03-14T10:44:03.860Z,0.6
2023-03-14T10:45:12.379Z,10.4
2023-03-14T10:46:20.758Z,10.4
2023-03-14T10:47:29.072Z,10.4
2023-03-14T10:48:37.622Z,9.1
2023-03-14T10:49:45.961Z,9.1
2023-03-14T10:50:54.310Z,9.1
2023-03-14T10:52:02.953Z,0.8
2023-03-14T10:53:11.314Z,0.8
2023-03-14T10:54:19.696Z,0.8
2023-03-14T10:55:28.259Z,0.9
2023-03-14T10:56:36.603Z,0.9
2023-03-14T10:57:44.948Z,0.9
2023-03-14T10:58:53.549Z,7.8
2023-03-14T11:00:01.951Z,7.8
2023-03-14T11:01:10.272Z,7.8
2023-03-14T11:02:18.801Z,1.4
2023-03-14T11:03:27.163Z,1.4
2023-03-14T11:04:35.575Z,1.4
2023-03-14T11:05:44.062Z,1.1
2023-03-14T11:06:52.418Z,1.1
2023-03-14T11:08:00.765Z,1.1
2023-03-14T11:09:09.333Z,1.2
2023-03-14T11:10:17.680Z,1.2
2023-03-14T11:11:26.051Z,1.2
2023-03-14T11:12:34.576Z,0.6
2023-03-14T11:13:42.928Z,0.6
2023-03-14T11:14:51.297Z,0.6
2023-03-14T11:15:59.998Z,0.7
2023-03-14T11:17:08.202Z,0.7
2023-03-14T11:18:16.568Z,0.7
2023-03-14T11:19:25.137Z,3.4
2023-03-14T11:20:33.469Z,3.4
2023-03-14T11:21:41.840Z,3.4
2023-03-14T11:22:50.389Z,1.1
2023-03-14T11:23:58.824Z,1.1
2023-03-14T11:25:07.207Z,1.1
2023-03-14T11:26:15.800Z,0.6
2023-03-14T11:27:24.215Z,0.6
2023-03-14T11:28:32.604Z,0.6
2023-03-14T11:29:41.288Z,0.7
2023-03-14T11:30:49.623Z,0.7
2023-03-14T11:31:57.971Z,0.7
2023-03-14T11:33:06.731Z,0.6
2023-03-14T11:34:14.872Z,0.6
2023-03-14T11:35:23.237Z,0.6
2023-03-14T11:36:31.841Z,1.4
2023-03-14T11:37:40.183Z,1.4
2023-03-14T11:38:49.058Z,1.4
2023-03-14T11:39:57.149Z,0.6
2023-03-14T11:41:05.519Z,0.6
2023-03-14T11:42:13.877Z,0.6
2023-03-14T11:43:22.455Z,0.8
2023-03-14T11:44:30.827Z,0.8
2023-03-14T11:45:39.208Z,0.8
2023-03-14T11:46:47.824Z,1.3
2023-03-14T11:47:56.173Z,1.3
2023-03-14T11:49:04.509Z,1.3
2023-03-14T11:50:13.079Z,1.2
2023-03-14T11:51:21.426Z,1.2
2023-03-14T11:52:29.783Z,1.2
2023-03-14T11:53:38.350Z,1.6
2023-03-14T11:54:46.708Z,1.6
2023-03-14T11:55:55.048Z,1.6
2023-03-14T11:57:03.616Z,0.6
2023-03-14T11:58:11.974Z,0.6
2023-03-14T11:59:20.329Z,0.6
2023-03-14T12:00:28.902Z,0.8
2023-03-14T12:01:37.267Z,0.8
2023-03-14T12:02:45.603Z,0.8
2023-03-14T12:03:54.292Z,0.6
2023-03-14T12:05:02.533Z,0.6
2023-03-14T12:06:10.896Z,0.6
2023-03-14T12:07:19.844Z,0.9
2023-03-14T12:08:27.830Z,0.9
2023-03-14T12:09:36.257Z,0.9
2023-03-14T12:10:44.805Z,0.6
2023-03-14T12:11:53.208Z,0.6
2023-03-14T12:13:01.577Z,0.6
2023-03-14T12:14:10.158Z,0.6
2023-03-14T12:15:18.687Z,0.6
2023-03-14T12:16:27.123Z,0.6
2023-03-14T12:17:35.800Z,0.6
2023-03-14T12:18:44.049Z,0.6
2023-03-14T12:19:52.446Z,0.6
2023-03-14T12:21:01.019Z,0.5
2023-03-14T12:22:09.363Z,0.5
2023-03-14T12:23:17.756Z,0.5
2023-03-14T12:24:26.324Z,0.6
2023-03-14T12:25:34.677Z,0.6
2023-03-14T12:26:43.028Z,0.6
2023-03-14T12:27:51.631Z,0.6
2023-03-14T12:29:00.006Z,0.6
2023-03-14T12:30:08.371Z,0.6
2023-03-14T12:31:16.971Z,0.5
2023-03-14T12:32:25.373Z,0.5
2023-03-14T12:33:33.692Z,0.5
2023-03-14T12:34:43.335Z,0.5
2023-03-14T12:35:50.703Z,0.5
2023-03-14T12:36:58.986Z,0.5
2023-03-14T12:38:07.558Z,0.6
2023-03-14T12:39:15.930Z,0.6
2023-03-14T12:40:24.296Z,0.6
2023-03-14T12:41:32.988Z,0.5
2023-03-14T12:42:45.490Z,0.5
2023-03-14T12:43:49.770Z,0.5
2023-03-14T12:44:58.352Z,0.3
2023-03-14T12:46:06.977Z,0.3
2023-03-14T12:47:15.077Z,0.3
2023-03-14T12:48:23.657Z,0.7
2023-03-14T12:49:32.030Z,0.7
2023-03-14T12:50:40.387Z,0.7
2023-03-14T12:51:48.983Z,0.4
2023-03-14T12:52:57.320Z,0.4
2023-03-14T12:54:05.679Z,0.4
2023-03-14T12:55:14.256Z,0.4
2023-03-14T12:56:22.629Z,0.4
2023-03-14T12:57:30.970Z,0.4
2023-03-14T12:58:39.563Z,0.4
2023-03-14T12:59:47.957Z,0.4
2023-03-14T13:00:56.340Z,0.4
2023-03-14T13:02:04.877Z,0.4
2023-03-14T13:03:13.265Z,0.4
2023-03-14T13:04:29.297Z,0.4
2023-03-14T13:05:30.203Z,0.4
2023-03-14T13:06:38.582Z,0.4
2023-03-14T13:07:46.997Z,0.4
2023-03-14T13:08:55.527Z,0.5
2023-03-14T13:10:03.900Z,0.5
2023-03-14T13:11:12.274Z,0.5
2023-03-14T13:12:20.825Z,0.3
2023-03-14T13:13:29.214Z,0.3
2023-03-14T13:14:37.554Z,0.3
2023-03-14T13:15:46.209Z,0.4
2023-03-14T13:16:54.592Z,0.4
2023-03-14T13:18:02.987Z,0.4
2023-03-14T13:19:11.555Z,0.5
2023-03-14T13:20:19.959Z,0.5
2023-03-14T13:21:28.332Z,0.5
2023-03-14T13:22:36.922Z,0.6
2023-03-14T13:23:45.401Z,0.6
2023-03-14T13:24:53.680Z,0.6
2023-03-14T13:26:02.428Z,0.3
2023-03-14T13:27:10.654Z,0.3
2023-03-14T13:28:19.040Z,0.3
2023-03-14T13:29:27.605Z,0.3
2023-03-14T13:30:36.002Z,0.3
2023-03-14T13:31:44.343Z,0.3
2023-03-14T13:32:53.109Z,0.1
2023-03-14T13:34:01.418Z,0.1
2023-03-14T13:35:09.747Z,0.1
2023-03-14T13:36:18.354Z,0.2
2023-03-14T13:37:26.731Z,0.2
2023-03-14T13:38:35.127Z,0.2
2023-03-14T13:39:43.808Z,0.3
2023-03-14T13:40:52.076Z,0.3
2023-03-14T13:42:00.472Z,0.3
2023-03-14T13:43:09.078Z,0.2
2023-03-14T13:44:17.488Z,0.2
2023-03-14T13:45:25.873Z,0.2
2023-03-14T13:46:34.537Z,0.2
2023-03-14T13:47:42.879Z,0.2
2023-03-14T13:48:51.287Z,0.2
2023-03-14T13:49:59.856Z,0.2
2023-03-14T13:51:08.260Z,0.2
2023-03-14T13:52:16.684Z,0.2
2023-03-14T13:53:25.253Z,0.4
2023-03-14T13:54:33.685Z,0.4
2023-03-14T13:55:42.059Z,0.4
2023-03-14T13:56:50.673Z,0.3
2023-03-14T13:57:59.073Z,0.3
2023-03-14T13:59:07.473Z,0.3
2023-03-14T14:00:16.359Z,0.2
2023-03-14T14:01:24.498Z,0.2
2023-03-14T14:02:32.826Z,0.2
2023-03-14T14:03:41.413Z,0.5
2023-03-14T14:04:49.792Z,0.5
2023-03-14T14:05:58.140Z,0.5
2023-03-14T14:07:06.719Z,0.3
2023-03-14T14:08:15.137Z,0.3
2023-03-14T14:09:23.532Z,0.3
2023-03-14T14:10:32.114Z,0.2
2023-03-14T14:11:47.358Z,0.2
2023-03-14T14:12:48.927Z,0.2
2023-03-14T14:13:57.515Z,0.2
2023-03-14T14:15:05.882Z,0.2
2023-03-14T14:16:14.291Z,0.2
2023-03-14T14:17:22.857Z,0.3
2023-03-14T14:18:31.240Z,0.3
2023-03-14T14:19:39.625Z,0.3
2023-03-14T14:20:48.304Z,0.3
2023-03-14T14:21:56.557Z,0.3
2023-03-14T14:23:04.939Z,0.3
2023-03-14T14:24:14.187Z,0.2
2023-03-14T14:25:22.565Z,0.2
2023-03-14T14:26:30.929Z,0.2
2023-03-14T14:27:39.583Z,0.1
2023-03-14T14:28:47.954Z,0.1
2023-03-14T15:02:54.849Z,0
2023-03-14T15:04:01.658Z,0
2023-03-14T15:05:10.025Z,0
2023-03-14T15:06:18.619Z,0.3
2023-03-14T15:07:28.196Z,0.3
2023-03-14T15:08:35.325Z,0.3
2023-03-14T15:09:43.915Z,0.4
2023-03-14T15:10:52.274Z,0.4
2023-03-14T15:12:01.000Z,0.4
2023-03-14T15:13:09.557Z,0.4
2023-03-14T15:14:17.936Z,0.4
2023-03-14T15:15:26.329Z,0.4
2023-03-14T15:16:34.963Z,0.5
2023-03-14T15:17:43.255Z,0.5
2023-03-14T15:18:51.795Z,0.5
2023-03-14T15:20:00.222Z,0.5
2023-03-14T15:21:08.585Z,0.5
2023-03-14T15:22:16.969Z,0.5
2023-03-14T15:23:25.580Z,0.5
2023-03-14T15:24:33.943Z,0.5
2023-03-14T15:25:54.823Z,0.5
2023-03-14T15:26:50.898Z,0.5
2023-03-14T15:27:59.269Z,0.5
2023-03-14T15:29:07.644Z,0.5
2023-03-14T15:30:16.217Z,0.4
2023-03-14T15:31:24.617Z,0.4
2023-03-14T15:32:33.006Z,0.4
2023-03-14T15:33:41.510Z,0.2
2023-03-14T15:34:50.024Z,0.2
2023-03-14T15:35:58.359Z,0.2
2023-03-14T15:37:06.801Z,0.1
2023-03-14T15:38:15.178Z,0.1
2023-03-14T15:39:23.541Z,0.1
2023-03-14T15:40:32.096Z,0.1
2023-03-14T15:41:40.442Z,0.1
2023-03-14T15:42:48.810Z,0.1
2023-03-14T15:43:57.383Z,0.1
2023-03-14T15:45:05.753Z,0.1
2023-03-14T15:46:14.195Z,0.1
2023-03-14T15:47:22.714Z,0.1
2023-03-14T15:48:31.125Z,0.1
2023-03-14T15:49:39.522Z,0.1
2023-03-14T15:50:48.108Z,0.1
2023-03-14T15:51:57.925Z,0.1
2023-03-14T15:53:04.822Z,0.1
2023-03-14T15:54:13.499Z,0.1
2023-03-14T15:55:21.948Z,0.1
2023-03-14T15:56:30.331Z,0.1
2023-03-14T15:57:38.925Z,0
2023-03-14T15:58:47.460Z,0
2023-03-14T15:59:55.833Z,0
2023-03-14T16:01:04.479Z,0.1
2023-03-14T16:02:12.859Z,0.1
2023-03-14T16:03:21.311Z,0.1
2023-03-14T16:04:30.485Z,0.1
2023-03-14T16:05:38.371Z,0.1
2023-03-14T16:06:46.803Z,0.1
2023-03-14T16:07:55.431Z,0.1
2023-03-14T16:09:03.850Z,0.1
2023-03-14T16:10:12.279Z,0.1
2023-03-14T16:11:22.354Z,0.2
2023-03-14T16:12:29.322Z,0.2
2023-03-14T16:13:37.817Z,0.2
2023-03-14T16:14:46.640Z,0.1
2023-03-14T16:15:55.096Z,0.1
2023-03-14T16:17:03.545Z,0.1
2023-03-14T16:18:21.412Z,2.7
2023-03-14T16:19:20.765Z,2.7
2023-03-14T16:20:31.271Z,2.7
2023-03-14T16:21:37.879Z,19.9
2023-03-14T16:22:46.315Z,19.9
2023-03-14T16:23:54.714Z,19.9
2023-03-14T16:25:03.378Z,7.5
2023-03-14T16:26:11.793Z,7.5
2023-03-14T16:27:20.197Z,7.5
2023-03-14T16:28:29.074Z,0.8
2023-03-14T16:29:37.479Z,0.8
2023-03-14T16:30:45.902Z,0.8
2023-03-14T16:31:54.709Z,0.6
2023-03-14T16:33:02.989Z,0.6
2023-03-14T16:34:11.330Z,0.6
2023-03-14T17:14:08.384Z,0
2023-03-14T17:15:16.677Z,0
2023-03-14T17:16:25.278Z,72.900002
2023-03-14T17:17:33.525Z,72.900002
2023-03-14T17:18:41.838Z,72.900002
2023-03-14T17:19:50.389Z,41.299999
2023-03-14T17:20:58.710Z,41.299999
2023-03-14T17:22:22.128Z,41.299999
2023-03-14T17:23:15.537Z,34.5
2023-03-14T17:24:23.870Z,34.5
2023-03-14T17:25:32.170Z,34.5
2023-03-14T17:26:40.685Z,33.099998
2023-03-14T17:27:48.985Z,33.099998
2023-03-14T17:28:57.286Z,33.099998
2023-03-14T17:30:05.841Z,16.299999
2023-03-14T17:31:14.192Z,16.299999
2023-03-14T17:32:22.415Z,16.299999
2023-03-14T17:33:30.930Z,30.9
2023-03-14T17:34:39.232Z,30.9
2023-03-14T17:35:47.573Z,30.9
2023-03-14T17:36:56.047Z,97.900002
2023-03-14T17:38:04.379Z,97.900002
2023-03-14T17:39:12.679Z,97.900002
2023-03-14T17:40:21.184Z,46.400002
2023-03-14T17:41:29.481Z,46.400002
2023-03-14T17:42:37.773Z,46.400002
2023-03-14T17:43:46.284Z,23.299999
2023-03-14T17:44:56.001Z,23.299999
2023-03-14T17:46:02.955Z,23.299999
2023-03-14T17:47:11.380Z,11.6
2023-03-14T17:48:19.710Z,11.6
2023-03-14T17:49:28.023Z,11.6
2023-03-14T17:50:36.523Z,6.1
2023-03-14T17:51:44.827Z,6.1
2023-03-14T17:52:53.118Z,6.1
2023-03-14T17:54:01.632Z,4.8
2023-03-14T17:55:09.934Z,4.8
2023-03-14T17:56:18.258Z,4.8
2023-03-14T17:57:26.761Z,27
2023-03-14T17:58:35.067Z,27
2023-03-14T17:59:43.383Z,27
2023-03-14T18:00:51.882Z,26.5
2023-03-14T18:02:00.423Z,26.5
2023-03-14T18:03:08.541Z,26.5
2023-03-14T18:04:17.104Z,12.8
2023-03-14T18:05:25.314Z,12.8
2023-03-14T18:06:33.633Z,12.8
2023-03-14T18:07:42.156Z,15.2
2023-03-14T18:08:50.456Z,15.2
2023-03-14T18:09:58.756Z,15.2
2023-03-14T18:11:07.265Z,16.9
2023-03-14T18:12:15.594Z,16.9
2023-03-14T18:13:23.905Z,16.9
2023-03-14T18:14:32.418Z,32.099998
2023-03-14T18:15:40.729Z,32.099998
2023-03-14T18:16:49.031Z,32.099998
2023-03-14T18:17:57.565Z,8
2023-03-14T18:19:05.834Z,8
2023-03-14T18:20:14.143Z,8
2023-03-14T18:21:22.663Z,15.9
2023-03-14T18:22:30.965Z,15.9
2023-03-14T18:23:39.300Z,15.9
2023-03-14T18:24:47.800Z,28
2023-03-14T18:25:56.087Z,28
2023-03-14T18:27:04.383Z,28
2023-03-14T18:28:12.915Z,4.8
2023-03-14T18:29:21.230Z,4.8
2023-03-14T18:30:29.527Z,4.8
2023-03-14T18:31:38.187Z,10.6
2023-03-14T18:32:46.376Z,10.6
2023-03-14T18:33:54.674Z,10.6
2023-03-14T18:35:03.171Z,4.7
2023-03-14T18:36:11.529Z,4.7
2023-03-14T18:37:19.757Z,4.7
2023-03-14T18:38:28.268Z,3.4
2023-03-14T18:39:36.572Z,3.4
2023-03-14T18:40:44.873Z,3.4
2023-03-14T18:41:53.391Z,3.5
2023-03-14T18:43:01.672Z,3.5
2023-03-14T18:44:09.990Z,3.5
2023-03-14T18:45:18.489Z,1.5
2023-03-14T18:46:26.830Z,1.5
2023-03-14T18:47:35.100Z,1.5
2023-03-14T18:48:43.619Z,1.9
2023-03-14T18:49:51.982Z,1.9
2023-03-14T18:51:00.218Z,1.9
2023-03-14T18:52:08.757Z,2
2023-03-14T18:53:17.042Z,2
2023-03-14T18:54:25.350Z,2
2023-03-14T18:55:33.866Z,1.8
2023-03-14T18:56:42.173Z,1.8
2023-03-14T18:57:50.460Z,1.8
2023-03-14T18:58:58.980Z,1.2
2023-03-14T19:00:07.269Z,1.2
2023-03-14T19:01:15.607Z,1.2
2023-03-14T19:02:24.146Z,1.2
2023-03-14T19:03:32.412Z,1.2
2023-03-14T19:04:40.725Z,1.2
2023-03-14T19:05:49.259Z,1.3
2023-03-14T19:06:57.536Z,1.3
2023-03-14T19:08:05.847Z,1.3
2023-03-14T19:09:14.352Z,1.3
2023-03-14T19:10:22.654Z,1.3
2023-03-14T19:11:30.966Z,1.3
2023-03-14T19:12:39.486Z,1.2
2023-03-14T19:13:47.809Z,1.2
2023-03-14T19:14:56.093Z,1.2
2023-03-14T19:16:04.649Z,1.5
2023-03-14T19:17:12.884Z,1.5
2023-03-14T19:18:21.195Z,1.5
2023-03-14T19:19:29.688Z,1.4
2023-03-14T19:20:37.988Z,1.4
2023-03-14T19:21:46.472Z,1.4
2023-03-14T19:22:54.860Z,1.3
2023-03-14T19:24:03.167Z,1.3
2023-03-14T19:25:11.470Z,1.3
2023-03-14T19:26:19.975Z,1.3
2023-03-14T19:27:28.284Z,1.3
2023-03-14T19:28:36.609Z,1.3
2023-03-14T19:29:45.110Z,4.8
2023-03-14T19:30:53.418Z,4.8
2023-03-14T19:32:01.807Z,4.8
2023-03-14T19:33:10.290Z,2.4
2023-03-14T19:34:18.545Z,2.4
2023-03-14T19:35:26.917Z,2.4
2023-03-14T19:36:35.362Z,4.9
2023-03-14T19:37:43.749Z,4.9
2023-03-14T19:38:51.964Z,4.9
2023-03-14T19:40:00.480Z,8.1
2023-03-14T19:41:08.769Z,8.1
2023-03-14T19:42:17.069Z,8.1
2023-03-14T19:43:25.607Z,1.9
2023-03-14T19:44:33.898Z,1.9
2023-03-14T19:45:42.234Z,1.9
2023-03-14T19:46:50.730Z,1.4
2023-03-14T19:47:59.015Z,1.4
2023-03-14T19:49:07.342Z,1.4
2023-03-14T19:50:15.838Z,1.9
2023-03-14T19:51:24.170Z,1.9
2023-03-14T19:52:32.435Z,1.9
2023-03-14T19:53:40.969Z,2.9
2023-03-14T19:54:49.236Z,2.9
2023-03-14T19:55:57.535Z,2.9
2023-03-14T19:57:06.072Z,1.8
2023-03-14T19:58:14.333Z,1.8
2023-03-14T19:59:22.636Z,1.8
2023-03-14T20:00:31.140Z,2
2023-03-14T20:01:39.479Z,2
2023-03-14T20:02:47.804Z,2
2023-03-14T20:03:56.281Z,2.3
2023-03-14T20:05:06.715Z,2.3
2023-03-14T20:06:12.876Z,2.3
2023-03-14T20:07:21.372Z,4.2
2023-03-14T20:08:29.673Z,4.2
2023-03-14T20:09:38.009Z,4.2
2023-03-14T20:10:46.489Z,2
2023-03-14T20:11:54.782Z,2
2023-03-14T20:13:11.950Z,2
2023-03-14T20:14:11.631Z,1.7
2023-03-14T20:15:19.980Z,1.7
2023-03-14T20:16:28.252Z,1.7
2023-03-14T20:17:36.755Z,2.2
2023-03-14T20:18:45.059Z,2.2
2023-03-14T20:19:53.367Z,2.2
2023-03-14T20:21:01.880Z,2.1
2023-03-14T20:22:10.172Z,2.1
2023-03-14T20:23:18.480Z,2.1
2023-03-14T20:24:26.996Z,2.4
2023-03-14T20:25:35.400Z,2.4
2023-03-14T20:26:43.586Z,2.4
2023-03-14T20:27:52.108Z,2.2
2023-03-14T20:29:00.406Z,2.2
2023-03-14T20:30:08.705Z,2.2
2023-03-14T20:31:17.265Z,2.2
2023-03-14T20:32:25.573Z,2.2
2023-03-14T20:33:33.842Z,2.2
2023-03-14T20:34:42.377Z,2.4
2023-03-14T20:35:50.686Z,2.4
2023-03-14T20:36:58.968Z,2.4
2023-03-14T20:38:07.483Z,2.5
2023-03-14T20:39:15.788Z,2.5
2023-03-14T20:40:24.105Z,2.5
2023-03-14T20:41:32.641Z,2.1
2023-03-14T20:42:40.921Z,2.1
2023-03-14T20:43:49.238Z,2.1
2023-03-14T20:44:57.747Z,1.6
2023-03-14T20:46:06.134Z,1.6
2023-03-14T20:47:14.413Z,1.6
2023-03-14T20:48:22.970Z,2.4
2023-03-14T20:49:31.253Z,2.4
2023-03-14T20:50:39.539Z,2.4
2023-03-14T20:51:48.036Z,1.9
2023-03-14T20:52:56.418Z,1.9
2023-03-14T20:54:04.651Z,1.9
2023-03-14T20:55:13.150Z,1.8
2023-03-14T20:56:21.451Z,1.8
2023-03-14T20:57:29.774Z,1.8
2023-03-14T20:58:38.248Z,1.6
2023-03-14T20:59:46.551Z,1.6
2023-03-14T21:00:54.871Z,1.6
2023-03-14T21:02:03.372Z,1.9
2023-03-14T21:03:11.652Z,1.9
2023-03-14T21:04:20.054Z,1.9
2023-03-14T21:05:28.597Z,5
2023-03-14T21:06:36.775Z,5
2023-03-14T21:07:45.098Z,5
2023-03-14T21:08:53.616Z,2.7
2023-03-14T21:10:01.991Z,2.7
2023-03-14T21:11:10.202Z,2.7
2023-03-14T21:12:18.714Z,2.1
2023-03-14T21:13:27.073Z,2.1
2023-03-14T21:14:35.321Z,2.1
2023-03-14T21:15:43.910Z,2.5
2023-03-14T21:16:52.117Z,2.5
2023-03-14T21:18:00.431Z,2.5
2023-03-14T21:19:08.956Z,2.1
2023-03-14T21:20:17.267Z,2.1
2023-03-14T21:21:25.567Z,2.1
2023-03-14T21:22:34.067Z,1.8
2023-03-14T21:23:42.375Z,1.8
2023-03-14T21:24:50.669Z,1.8
2023-03-14T21:25:59.187Z,1.9
2023-03-14T21:27:07.492Z,1.9
2023-03-14T21:28:15.790Z,1.9
2023-03-14T21:29:24.344Z,1.8
2023-03-14T21:30:32.603Z,1.8
2023-03-14T21:31:40.938Z,1.8
2023-03-14T21:32:49.461Z,1.9
2023-03-14T21:33:57.695Z,1.9
2023-03-14T21:35:06.015Z,1.9
2023-03-14T21:36:14.558Z,1.6
2023-03-14T21:37:22.830Z,1.6
2023-03-14T21:38:31.150Z,1.6
2023-03-14T21:39:39.647Z,2.3